HBI weather

Asheboro Regional Airport
Asheboro, North Carolina, United States

Public forecast

Using degrees Fahrenheit for public forecast. Weather courtesy of forecast.io.

Current aviation weather report (METAR) for Asheboro Regional Airport

Retrieved 2020/04/05 09:35 UTC (37 minutes ago):

KHBI 050935Z AUTO 14003KT 10SM CLR 10/08 A3006 RMK AO2 T00950081

Closest aviation forecast (TAF) to Asheboro Regional Airport

Forecast is more than 6 hours old.

Closest forecast is Piedmont Triad International Airport, 26.7 nm (49.4 km) N. Retrieved 2020-04-05 00:42 UTC (10 hours ago):

TAF KGSO 042340Z 0500/0524 VRB03KT P6SM SCT250